createdAt,value
2018-09-08T00:01:25.329Z,99.90
2018-09-08T00:03:52.523Z,99.90
2018-09-08T00:06:25.487Z,99.90
2018-09-08T00:08:52.706Z,99.90
2018-09-08T00:11:20.080Z,99.90
2018-09-08T00:13:47.283Z,99.90
2018-09-08T00:16:20.281Z,99.90
2018-09-08T00:18:53.309Z,99.90
2018-09-08T00:21:26.244Z,99.90
2018-09-08T00:23:59.271Z,99.90
2018-09-08T00:26:32.198Z,99.90
2018-09-08T00:29:03.448Z,99.90
2018-09-08T00:31:30.656Z,99.90
2018-09-08T00:33:57.830Z,99.90
2018-09-08T00:36:25.024Z,99.90
2018-09-08T00:38:52.207Z,99.90
2018-09-08T00:41:19.423Z,99.90
2018-09-08T00:43:46.604Z,99.90
2018-09-08T00:46:13.791Z,99.90
2018-09-08T00:48:40.972Z,99.90
2018-09-08T00:51:08.175Z,99.90
2018-09-08T00:53:35.352Z,99.90
2018-09-08T00:56:03.096Z,99.90
2018-09-08T00:58:30.279Z,99.90
2018-09-08T01:00:57.465Z,99.90
2018-09-08T01:03:24.668Z,99.90
2018-09-08T01:05:51.873Z,99.90
2018-09-08T01:08:19.062Z,99.90
2018-09-08T01:10:46.256Z,99.90
2018-09-08T01:13:13.431Z,99.90
2018-09-08T01:15:40.659Z,99.90
2018-09-08T01:18:07.850Z,99.90
2018-09-08T01:20:35.059Z,99.90
2018-09-08T01:23:02.320Z,99.90
2018-09-08T01:25:29.678Z,99.90
2018-09-08T01:27:56.883Z,99.90
2018-09-08T01:30:24.084Z,99.90
2018-09-08T01:32:51.276Z,99.90
2018-09-08T01:35:18.475Z,99.90
2018-09-08T01:37:45.892Z,99.90
2018-09-08T01:40:13.107Z,99.90
2018-09-08T01:42:40.267Z,99.90
2018-09-08T01:45:07.887Z,99.90
2018-09-08T01:47:35.247Z,99.90
2018-09-08T01:50:02.714Z,99.90
2018-09-08T01:52:29.858Z,99.90
2018-09-08T01:54:57.150Z,99.90
2018-09-08T01:57:24.403Z,99.90
2018-09-08T01:59:51.596Z,99.90
2018-09-08T02:02:18.710Z,99.90
2018-09-08T02:04:46.104Z,99.90
2018-09-08T02:07:13.460Z,99.90
2018-09-08T02:09:40.623Z,99.90
2018-09-08T02:12:07.787Z,99.90
2018-09-08T02:14:34.933Z,99.90
2018-09-08T02:17:02.068Z,99.90
2018-09-08T02:19:29.207Z,99.90
2018-09-08T02:21:56.366Z,99.90
2018-09-08T02:24:23.563Z,99.90
2018-09-08T02:26:50.726Z,99.90
2018-09-08T02:29:17.872Z,99.90
2018-09-08T02:31:45.027Z,99.90
2018-09-08T02:34:12.188Z,99.90
2018-09-08T02:36:39.342Z,99.90
2018-09-08T02:39:07.144Z,99.90
2018-09-08T02:41:34.385Z,99.90
2018-09-08T02:44:02.083Z,99.90
2018-09-08T02:46:29.248Z,99.90
2018-09-08T02:48:56.392Z,99.90
2018-09-08T02:51:22.652Z,99.90
2018-09-08T02:53:48.899Z,99.90
2018-09-08T02:56:15.199Z,99.90
2018-09-08T02:58:41.451Z,99.90
2018-09-08T03:01:07.707Z,99.90
2018-09-08T03:03:33.975Z,99.90
2018-09-08T03:06:00.232Z,99.90
2018-09-08T03:08:26.479Z,99.90
2018-09-08T03:10:52.738Z,99.90
2018-09-08T03:13:18.993Z,99.90
2018-09-08T03:15:45.257Z,99.90
2018-09-08T03:18:11.511Z,99.90
2018-09-08T03:20:37.773Z,99.90
2018-09-08T03:23:04.029Z,99.90
2018-09-08T03:25:30.296Z,99.90
2018-09-08T03:27:56.557Z,99.90
2018-09-08T03:30:22.802Z,99.90
2018-09-08T03:32:49.063Z,99.90
2018-09-08T03:35:15.363Z,99.90
2018-09-08T03:37:41.615Z,99.90
2018-09-08T03:40:07.877Z,99.90
2018-09-08T03:42:34.139Z,99.90
2018-09-08T03:45:00.400Z,99.90
2018-09-08T03:47:26.669Z,99.90
2018-09-08T03:49:52.919Z,99.90
2018-09-08T03:52:19.179Z,99.90
2018-09-08T03:54:45.435Z,99.90
2018-09-08T03:57:11.703Z,99.90
2018-09-08T03:59:37.964Z,99.90
2018-09-08T04:02:04.219Z,99.90
2018-09-08T04:04:31.374Z,99.90
2018-09-08T04:06:58.618Z,99.90
2018-09-08T04:09:25.786Z,99.90
2018-09-08T04:11:52.986Z,99.90
2018-09-08T04:14:20.157Z,99.90
2018-09-08T04:16:47.344Z,99.90
2018-09-08T04:19:14.534Z,99.90
2018-09-08T04:21:41.728Z,99.90
2018-09-08T04:24:09.009Z,99.90
2018-09-08T04:26:36.104Z,99.90
2018-09-08T04:29:03.292Z,99.90
2018-09-08T04:31:30.488Z,99.90
2018-09-08T04:33:57.655Z,99.90
2018-09-08T04:36:24.805Z,99.90
2018-09-08T04:38:51.984Z,99.90
2018-09-08T04:41:19.148Z,99.90
2018-09-08T04:43:46.305Z,99.90
2018-09-08T04:46:13.455Z,99.90
2018-09-08T04:48:40.599Z,99.90
2018-09-08T04:51:07.747Z,99.90
2018-09-08T04:53:34.897Z,99.90
2018-09-08T04:56:02.052Z,99.90
2018-09-08T04:58:29.190Z,99.90
2018-09-08T05:00:56.343Z,99.90
2018-09-08T05:03:23.488Z,99.90
2018-09-08T05:05:50.637Z,99.90
2018-09-08T05:08:17.787Z,99.90
2018-09-08T05:10:44.921Z,99.90
2018-09-08T05:13:12.088Z,99.90
2018-09-08T05:15:39.240Z,99.90
2018-09-08T05:18:06.442Z,99.90
2018-09-08T05:20:33.592Z,99.90
2018-09-08T05:23:00.735Z,99.90
2018-09-08T05:25:27.928Z,99.90
2018-09-08T05:27:55.076Z,99.90
2018-09-08T05:30:22.225Z,99.90
2018-09-08T05:32:49.369Z,99.90
2018-09-08T05:35:16.514Z,99.90
2018-09-08T05:37:43.671Z,99.90
2018-09-08T05:40:11.059Z,99.90
2018-09-08T05:42:38.218Z,99.90
2018-09-08T05:45:05.378Z,99.90
2018-09-08T05:47:32.514Z,99.90
2018-09-08T05:49:59.660Z,99.90
2018-09-08T05:52:26.959Z,99.90
2018-09-08T05:54:54.100Z,99.90
2018-09-08T05:57:21.239Z,99.90
2018-09-08T05:59:48.395Z,99.90
2018-09-08T06:02:15.551Z,99.90
2018-09-08T06:04:42.683Z,99.90
2018-09-08T06:07:09.813Z,99.90
2018-09-08T06:09:37.122Z,99.90
2018-09-08T06:12:04.273Z,99.90
2018-09-08T06:14:32.275Z,99.90
2018-09-08T06:16:59.738Z,99.90
2018-09-08T06:19:27.012Z,99.90
2018-09-08T06:21:54.171Z,99.90
2018-09-08T06:24:21.338Z,99.90
2018-09-08T06:26:48.479Z,99.90
2018-09-08T06:29:15.872Z,99.90
2018-09-08T06:31:43.334Z,99.90
2018-09-08T06:34:10.488Z,99.90
2018-09-08T06:36:37.631Z,99.90
2018-09-08T06:39:06.864Z,99.90
2018-09-08T06:41:34.003Z,99.90
2018-09-08T06:44:01.154Z,99.90
2018-09-08T06:46:28.299Z,99.90
2018-09-08T06:48:55.455Z,99.90
2018-09-08T06:51:22.676Z,99.90
2018-09-08T06:53:49.847Z,99.90
2018-09-08T06:56:16.983Z,99.40
2018-09-08T06:58:44.128Z,98.90
2018-09-08T07:01:11.260Z,97.80
2018-09-08T07:03:38.395Z,96.70
2018-09-08T07:06:05.651Z,95.90
2018-09-08T07:08:32.795Z,97.60
2018-09-08T07:10:59.978Z,96.00
2018-09-08T07:13:27.135Z,95.20
2018-09-08T07:15:54.283Z,95.10
2018-09-08T07:18:21.417Z,95.80
2018-09-08T07:20:48.614Z,94.80
2018-09-08T07:23:15.759Z,96.00
2018-09-08T07:25:42.907Z,95.80
2018-09-08T07:28:10.043Z,93.60
2018-09-08T07:30:37.224Z,92.90
2018-09-08T07:33:04.734Z,94.00
2018-09-08T07:35:31.887Z,92.50
2018-09-08T07:37:59.079Z,92.70
2018-09-08T07:40:26.358Z,92.50
2018-09-08T07:42:53.518Z,90.80
2018-09-08T07:45:20.684Z,88.70
2018-09-08T07:47:47.842Z,85.10
2018-09-08T07:50:15.011Z,90.00
2018-09-08T07:52:42.199Z,90.00
2018-09-08T07:55:09.385Z,85.00
2018-09-08T07:57:36.555Z,85.00
2018-09-08T08:00:04.240Z,85.50
2018-09-08T08:02:31.413Z,84.00
2018-09-08T08:04:58.588Z,84.80
2018-09-08T08:07:25.767Z,84.50
2018-09-08T08:09:52.932Z,82.60
2018-09-08T08:12:20.085Z,80.50
2018-09-08T08:14:47.239Z,80.90
2018-09-08T08:17:14.487Z,81.40
2018-09-08T08:19:41.671Z,81.00
2018-09-08T08:22:08.966Z,81.80
2018-09-08T08:24:36.163Z,79.70
2018-09-08T08:27:03.339Z,77.40
2018-09-08T08:29:30.540Z,77.50
2018-09-08T08:31:57.719Z,76.10
2018-09-08T08:34:24.978Z,75.70
2018-09-08T08:36:52.295Z,75.30
2018-09-08T08:39:19.524Z,75.20
2018-09-08T08:41:46.903Z,73.70
2018-09-08T08:44:14.079Z,75.80
2018-09-08T08:46:41.248Z,73.30
2018-09-08T08:49:08.439Z,74.70
2018-09-08T08:51:47.095Z,72.90
2018-09-08T08:54:19.845Z,75.90
2018-09-08T08:56:46.998Z,75.20
2018-09-08T08:59:14.249Z,71.60
2018-09-08T09:01:41.527Z,68.70
2018-09-08T09:04:08.989Z,69.20
2018-09-08T09:06:36.603Z,70.10
2018-09-08T09:09:07.238Z,70.40
2018-09-08T09:11:34.532Z,73.90
2018-09-08T09:14:01.755Z,68.80
2018-09-08T09:16:28.936Z,71.10
2018-09-08T09:19:07.482Z,73.80
2018-09-08T09:21:46.051Z,71.90
2018-09-08T09:24:52.447Z,68.30
2018-09-08T09:27:19.367Z,70.60
2018-09-08T09:29:46.534Z,68.00
2018-09-08T09:32:13.740Z,69.00
2018-09-08T09:34:41.272Z,65.80
2018-09-08T09:37:08.508Z,68.00
2018-09-08T09:39:35.664Z,66.20
2018-09-08T09:42:02.832Z,65.60
2018-09-08T09:44:29.959Z,66.40
2018-09-08T09:46:57.125Z,66.60
2018-09-08T09:49:24.278Z,66.80
2018-09-08T09:51:51.456Z,69.10
2018-09-08T09:54:18.600Z,70.20
2018-09-08T09:56:45.765Z,67.90
2018-09-08T09:59:12.955Z,69.50
2018-09-08T10:01:47.496Z,68.40
2018-09-08T10:04:14.701Z,66.90
2018-09-08T10:06:41.844Z,69.50
2018-09-08T10:09:09.004Z,69.30
2018-09-08T10:11:36.241Z,69.40
2018-09-08T10:14:03.447Z,67.30
2018-09-08T10:16:30.643Z,68.60
2018-09-08T10:18:57.912Z,69.10
2018-09-08T10:21:25.071Z,67.50
2018-09-08T10:24:04.344Z,71.80
2018-09-08T10:26:19.480Z,71.20
2018-09-08T10:28:46.579Z,67.10
2018-09-08T10:31:13.726Z,67.20
2018-09-08T10:33:40.871Z,72.10
2018-09-08T10:36:08.051Z,70.60
2018-09-08T10:38:35.221Z,65.30
2018-09-08T10:41:02.650Z,66.90
2018-09-08T10:43:29.835Z,66.20
2018-09-08T10:45:57.004Z,69.10
2018-09-08T10:48:24.168Z,67.50
2018-09-08T10:50:51.358Z,73.00
2018-09-08T10:53:18.532Z,69.50
2018-09-08T10:55:45.766Z,69.90
2018-09-08T10:58:12.929Z,71.60
2018-09-08T11:00:40.095Z,71.90
2018-09-08T11:03:07.264Z,70.30
2018-09-08T11:05:34.522Z,71.10
2018-09-08T11:08:01.705Z,72.60
2018-09-08T11:10:28.871Z,72.80
2018-09-08T11:12:56.039Z,71.80
2018-09-08T11:15:23.289Z,72.10
2018-09-08T11:17:50.447Z,69.70
2018-09-08T11:20:17.603Z,72.10
2018-09-08T11:22:44.780Z,72.70
2018-09-08T11:25:11.952Z,71.80
2018-09-08T11:27:39.158Z,72.00
2018-09-08T11:30:06.532Z,74.40
2018-09-08T11:32:33.798Z,72.60
2018-09-08T11:35:00.964Z,75.00
2018-09-08T11:37:28.120Z,74.50
2018-09-08T11:39:55.268Z,73.80
2018-09-08T11:42:22.439Z,74.00
2018-09-08T11:44:49.589Z,74.60
2018-09-08T11:47:16.748Z,76.90
2018-09-08T11:49:43.969Z,75.90
2018-09-08T11:52:11.152Z,71.40
2018-09-08T11:54:38.371Z,72.80
2018-09-08T11:57:05.535Z,74.20
2018-09-08T11:59:32.865Z,76.80
2018-09-08T12:02:00.068Z,76.00
2018-09-08T12:04:27.335Z,74.10
2018-09-08T12:06:54.479Z,75.90
2018-09-08T12:09:21.889Z,72.30
2018-09-08T12:11:49.119Z,75.50
2018-09-08T12:14:16.413Z,77.00
2018-09-08T12:16:43.616Z,76.10
2018-09-08T12:19:10.991Z,73.60
2018-09-08T12:21:38.136Z,74.10
2018-09-08T12:24:05.522Z,74.50
2018-09-08T12:26:32.723Z,73.40
2018-09-08T12:29:00.047Z,73.00
2018-09-08T12:31:27.361Z,75.30
2018-09-08T12:33:54.558Z,75.00
2018-09-08T12:36:21.807Z,75.80
2018-09-08T12:38:48.992Z,69.60
2018-09-08T12:41:16.251Z,71.50
2018-09-08T12:43:43.434Z,69.90
2018-09-08T12:46:10.724Z,70.90
2018-09-08T12:48:37.910Z,71.80
2018-09-08T12:51:05.162Z,71.50
2018-09-08T12:53:32.404Z,69.50
2018-09-08T12:55:59.863Z,70.40
2018-09-08T12:58:27.018Z,68.80
2018-09-08T13:00:54.453Z,67.70
2018-09-08T13:03:21.819Z,66.90
2018-09-08T13:05:48.983Z,67.20
2018-09-08T13:08:16.267Z,68.40
2018-09-08T13:10:43.528Z,65.90
2018-09-08T13:13:10.839Z,68.10
2018-09-08T13:15:37.995Z,66.60
2018-09-08T13:18:05.263Z,67.60
2018-09-08T13:20:32.399Z,65.40
2018-09-08T13:22:59.550Z,68.20
2018-09-08T13:25:26.712Z,63.50
2018-09-08T13:27:53.856Z,63.80
2018-09-08T13:30:21.015Z,63.70
2018-09-08T13:32:48.172Z,64.10
2018-09-08T13:35:15.607Z,66.20
2018-09-08T13:37:42.783Z,65.20
2018-09-08T13:40:10.198Z,66.50
2018-09-08T13:42:37.390Z,69.00
2018-09-08T13:45:04.940Z,68.80
2018-09-08T13:47:32.103Z,67.80
2018-09-08T13:49:59.288Z,65.20
2018-09-08T13:52:26.475Z,66.10
2018-09-08T13:54:53.762Z,66.20
2018-09-08T13:57:21.081Z,71.00
2018-09-08T13:59:48.297Z,67.30
2018-09-08T14:02:15.507Z,66.10
2018-09-08T14:04:42.671Z,64.50
2018-09-08T14:07:09.886Z,62.50
2018-09-08T14:09:37.077Z,63.30
2018-09-08T14:12:04.292Z,63.70
2018-09-08T14:14:31.455Z,64.30
2018-09-08T14:16:58.692Z,64.80
2018-09-08T14:19:25.858Z,64.20
2018-09-08T14:21:53.014Z,63.40
2018-09-08T14:24:20.213Z,65.40
2018-09-08T14:26:47.395Z,66.70
2018-09-08T14:29:14.547Z,67.50
2018-09-08T14:31:46.936Z,67.10
2018-09-08T14:34:14.106Z,68.10
2018-09-08T14:36:41.327Z,67.60
2018-09-08T14:39:09.305Z,68.40
2018-09-08T14:41:36.479Z,63.80
2018-09-08T14:44:03.675Z,63.70
2018-09-08T14:46:30.902Z,64.20
2018-09-08T14:48:58.088Z,65.70
2018-09-08T14:51:25.273Z,65.40
2018-09-08T14:53:52.441Z,67.90
2018-09-08T14:56:19.621Z,66.50
2018-09-08T14:58:46.774Z,67.40
2018-09-08T15:01:13.945Z,66.40
2018-09-08T15:03:41.109Z,65.40
2018-09-08T15:06:08.274Z,65.50
2018-09-08T15:08:35.464Z,64.60
2018-09-08T15:11:02.638Z,67.00
2018-09-08T15:13:29.799Z,66.80
2018-09-08T15:15:56.983Z,67.90
2018-09-08T15:18:24.143Z,67.60
2018-09-08T15:20:51.316Z,65.50
2018-09-08T15:23:18.501Z,67.40
2018-09-08T15:25:45.685Z,67.40
2018-09-08T15:28:12.856Z,69.00
2018-09-08T15:30:40.027Z,65.40
2018-09-08T15:33:07.196Z,66.70
2018-09-08T15:35:34.601Z,66.30
2018-09-08T15:38:01.752Z,66.50
2018-09-08T15:40:28.911Z,69.00
2018-09-08T15:42:56.234Z,71.60
2018-09-08T15:45:23.504Z,69.70
2018-09-08T15:47:50.640Z,68.90
2018-09-08T15:50:17.812Z,68.90
2018-09-08T15:52:44.981Z,69.80
2018-09-08T15:55:12.103Z,69.90
2018-09-08T15:57:39.251Z,69.60
2018-09-08T16:00:06.435Z,68.90
2018-09-08T16:02:33.584Z,68.80
2018-09-08T16:05:00.730Z,69.10
2018-09-08T16:07:27.874Z,70.10
2018-09-08T16:09:55.011Z,71.40
2018-09-08T16:12:22.157Z,71.20
2018-09-08T16:14:49.286Z,73.60
2018-09-08T16:17:16.429Z,73.50
2018-09-08T16:19:43.564Z,74.90
2018-09-08T16:22:10.730Z,75.80
2018-09-08T16:24:37.876Z,77.40
2018-09-08T16:27:05.075Z,76.90
2018-09-08T16:29:32.251Z,77.90
2018-09-08T16:31:59.391Z,78.20
2018-09-08T16:34:26.535Z,78.70
2018-09-08T16:36:53.923Z,78.90
2018-09-08T16:39:21.104Z,79.10
2018-09-08T16:41:48.299Z,78.60
2018-09-08T16:44:15.499Z,78.10
2018-09-08T16:46:42.654Z,79.70
2018-09-08T16:49:09.819Z,81.10
2018-09-08T16:51:37.010Z,81.60
2018-09-08T16:54:04.226Z,82.20
2018-09-08T16:56:31.401Z,81.80
2018-09-08T16:58:58.576Z,82.20
2018-09-08T17:01:25.772Z,82.30
2018-09-08T17:03:52.961Z,84.10
2018-09-08T17:06:20.128Z,83.40
2018-09-08T17:08:47.305Z,83.30
2018-09-08T17:11:14.476Z,83.10
2018-09-08T17:13:41.647Z,83.40
2018-09-08T17:16:08.817Z,84.40
2018-09-08T17:18:36.001Z,84.30
2018-09-08T17:21:03.179Z,84.90
2018-09-08T17:23:30.355Z,84.80
2018-09-08T17:25:57.739Z,85.10
2018-09-08T17:28:25.111Z,86.40
2018-09-08T17:30:52.240Z,86.70
2018-09-08T17:33:19.417Z,88.40
2018-09-08T17:35:46.601Z,88.90
2018-09-08T17:38:13.780Z,88.30
2018-09-08T17:40:40.967Z,90.00
2018-09-08T17:43:08.140Z,90.30
2018-09-08T17:45:35.309Z,91.90
2018-09-08T17:48:02.474Z,91.30
2018-09-08T17:50:29.626Z,93.20
2018-09-08T17:52:56.811Z,91.90
2018-09-08T17:55:23.980Z,92.10
2018-09-08T17:57:51.265Z,92.20
2018-09-08T18:00:18.419Z,92.20
2018-09-08T18:02:45.592Z,92.00
2018-09-08T18:05:12.796Z,92.60
2018-09-08T18:07:39.962Z,92.60
2018-09-08T18:10:07.480Z,93.10
2018-09-08T18:12:34.648Z,93.00
2018-09-08T18:15:01.834Z,93.00
2018-09-08T18:17:29.105Z,93.60
2018-09-08T18:19:56.207Z,93.30
2018-09-08T18:22:23.389Z,93.60
2018-09-08T18:24:50.570Z,94.10
2018-09-08T18:27:17.745Z,94.30
2018-09-08T18:29:44.947Z,94.70
2018-09-08T18:32:12.118Z,94.80
2018-09-08T18:34:39.295Z,94.90
2018-09-08T18:37:06.755Z,95.20
2018-09-08T18:39:33.891Z,95.60
2018-09-08T18:42:01.328Z,95.60
2018-09-08T18:44:28.503Z,95.80
2018-09-08T18:46:55.698Z,95.90
2018-09-08T18:49:23.012Z,96.00
2018-09-08T18:51:50.182Z,96.30
2018-09-08T18:54:17.367Z,96.50
2018-09-08T18:56:44.555Z,96.90
2018-09-08T18:59:11.724Z,97.10
2018-09-08T19:01:38.916Z,97.20
2018-09-08T19:04:06.080Z,97.50
2018-09-08T19:06:33.273Z,97.70
2018-09-08T19:09:00.435Z,98.00
2018-09-08T19:11:27.602Z,98.30
2018-09-08T19:13:54.773Z,98.70
2018-09-08T19:16:21.938Z,98.90
2018-09-08T19:18:49.108Z,99.20
2018-09-08T19:21:16.290Z,99.90
2018-09-08T19:23:43.455Z,99.90
2018-09-08T19:26:10.665Z,99.90
2018-09-08T19:28:37.829Z,99.90
2018-09-08T19:31:05.020Z,99.90
2018-09-08T19:33:32.187Z,99.90
2018-09-08T19:35:59.359Z,99.90
2018-09-08T19:38:26.507Z,99.90
2018-09-08T19:40:53.659Z,99.90
2018-09-08T19:43:20.803Z,99.90
2018-09-08T19:45:47.955Z,99.90
2018-09-08T19:48:18.300Z,99.90
2018-09-08T19:50:45.479Z,99.90
2018-09-08T19:53:18.342Z,99.90
2018-09-08T19:55:45.495Z,99.90
2018-09-08T19:58:18.346Z,99.90
2018-09-08T20:00:45.695Z,99.90
2018-09-08T20:03:13.158Z,99.90
2018-09-08T20:05:40.296Z,99.90
2018-09-08T20:08:07.435Z,99.90
2018-09-08T20:10:34.584Z,99.90
2018-09-08T20:13:01.729Z,99.90
2018-09-08T20:15:28.863Z,99.90
2018-09-08T20:17:56.028Z,99.90
2018-09-08T20:20:23.366Z,99.90
2018-09-08T20:22:50.519Z,99.90
2018-09-08T20:25:17.685Z,99.90
2018-09-08T20:27:44.853Z,99.90
2018-09-08T20:30:12.009Z,99.90
2018-09-08T20:32:39.175Z,99.90
2018-09-08T20:35:06.485Z,99.90
2018-09-08T20:37:33.666Z,99.90
2018-09-08T20:40:01.212Z,99.90
2018-09-08T20:42:28.400Z,99.90
2018-09-08T20:44:55.568Z,99.90
2018-09-08T20:47:22.744Z,99.90
2018-09-08T20:49:49.923Z,99.90
2018-09-08T20:52:17.121Z,99.90
2018-09-08T20:54:44.580Z,99.90
2018-09-08T20:57:11.959Z,99.90
2018-09-08T20:59:39.151Z,99.90
2018-09-08T21:02:06.491Z,99.90
2018-09-08T21:04:33.692Z,99.90
2018-09-08T21:07:00.871Z,99.90
2018-09-08T21:09:28.039Z,99.90
2018-09-08T21:11:55.254Z,99.90
2018-09-08T21:14:22.430Z,99.90
2018-09-08T21:16:50.403Z,99.90
2018-09-08T21:19:17.584Z,99.90
2018-09-08T21:21:44.768Z,99.90
2018-09-08T21:24:11.956Z,99.90
2018-09-08T21:26:39.115Z,99.90
2018-09-08T21:29:06.290Z,99.90
2018-09-08T21:31:33.455Z,99.90
2018-09-08T21:34:00.631Z,99.90
2018-09-08T21:36:27.776Z,99.90
2018-09-08T21:38:54.940Z,99.90
2018-09-08T21:41:22.095Z,99.90
2018-09-08T21:43:49.271Z,99.90
2018-09-08T21:46:16.407Z,99.90
2018-09-08T21:48:43.571Z,99.90
2018-09-08T21:51:10.726Z,99.90
2018-09-08T21:53:37.886Z,99.90
2018-09-08T21:56:05.084Z,99.90
2018-09-08T21:58:32.243Z,99.90
2018-09-08T22:01:05.048Z,99.90
2018-09-08T22:03:32.195Z,99.90
2018-09-08T22:05:59.342Z,99.90
2018-09-08T22:08:28.200Z,99.90
2018-09-08T22:10:55.346Z,99.90
2018-09-08T22:13:22.498Z,99.90
2018-09-08T22:15:49.810Z,99.90
2018-09-08T22:18:16.935Z,99.90
2018-09-08T22:20:44.076Z,99.90
2018-09-08T22:23:11.219Z,99.90
2018-09-08T22:25:38.359Z,99.90
2018-09-08T22:28:05.706Z,99.90
2018-09-08T22:30:32.854Z,99.90
2018-09-08T22:33:00.075Z,99.90
2018-09-08T22:35:27.178Z,99.90
2018-09-08T22:37:54.351Z,99.90
2018-09-08T22:40:21.520Z,99.90
2018-09-08T22:42:48.700Z,99.90
2018-09-08T22:45:15.886Z,99.90
2018-09-08T22:47:43.031Z,99.90
2018-09-08T22:50:10.216Z,99.90
2018-09-08T22:52:37.366Z,99.90
2018-09-08T22:55:04.551Z,99.90
2018-09-08T22:57:31.689Z,99.90
2018-09-08T22:59:58.894Z,99.90
2018-09-08T23:02:26.044Z,99.90
2018-09-08T23:04:53.203Z,99.90
2018-09-08T23:07:20.344Z,99.90
2018-09-08T23:09:47.515Z,99.90
2018-09-08T23:12:14.650Z,99.90
2018-09-08T23:14:41.799Z,99.90
2018-09-08T23:17:08.936Z,99.90
2018-09-08T23:19:36.082Z,99.90
2018-09-08T23:22:03.285Z,99.90
2018-09-08T23:24:30.436Z,99.90
2018-09-08T23:26:57.584Z,99.90
2018-09-08T23:29:25.131Z,99.90
2018-09-08T23:31:52.295Z,99.90
2018-09-08T23:34:19.453Z,99.90
2018-09-08T23:36:46.595Z,99.90
2018-09-08T23:39:13.730Z,99.90
2018-09-08T23:41:40.884Z,99.90
2018-09-08T23:44:08.023Z,99.90
2018-09-08T23:46:35.163Z,99.90
2018-09-08T23:49:02.332Z,99.90
2018-09-08T23:51:29.485Z,99.90
2018-09-08T23:53:56.623Z,99.90
2018-09-08T23:56:23.785Z,99.90
2018-09-08T23:58:50.929Z,99.90
